Shelburn, Indiana
Current Conditions -  °F | °C
As of 8:15 PM on Monday 20 Oct 2014 (Local Time) from KRSV Reporting Station
Clear Clear  
Wind Chill: 16°   Ceiling: Unl
Heat Index: 16°   Visibility: 10mi
Dew Point:   Wind: 8mph
Humidity: 58%   Direction: 310°NW
Pressure: 29.95"   Gusts: NA
Location:  39.18°N, 87.39°W
Report Text: KRSV 210015Z AUTO 31007KT 10SM CLR 17/08 A2995 RMK AO2 T01650082
Loading
Personal Weather Stations






























Interactive Weather Map
Tropical Storm Tracking
New forecast layout! Learn more

10-Day Weather Forecast

Advertisements
Track Severe Weather on mobile